Time;durP1;ratioP1;P1;durP2;ratioP2;P2;SDS_P1;SDS_P2;PMS_P1;PMS_P2;Temp;Humidity;BMP_temperature;BMP_pressure;BME280_temperature;BME280_humidity;BME280_pressure;Samples;Min_cycle;Max_cycle;Signal;HPM_P1;HPM_P2
2023/06/20 00:00:13;;;;;;;5.30;3.35;;;;;;;29.05;39.40;100858.91;4958852;28;20521;-62
2023/06/20 00:02:38;;;;;;;6.90;3.33;;;;;;;29.03;39.71;100861.09;4959372;28;20043;-62
2023/06/20 00:05:05;;;;;;;5.68;3.67;;;;;;;29.03;40.42;100863.84;4959138;29;20027;-61
2023/06/20 00:07:30;;;;;;;6.40;3.00;;;;;;;29.02;40.10;100863.00;4958343;28;20027;-62
2023/06/20 00:09:55;;;;;;;7.35;4.05;;;;;;;29.01;40.56;100866.84;4958347;28;20450;-62
2023/06/20 00:12:21;;;;;;;6.95;3.40;;;;;;;28.97;40.24;100854.66;4940968;29;20384;-61
2023/06/20 00:14:46;;;;;;;8.55;3.35;;;;;;;28.98;40.11;100853.53;4958413;28;20059;-62
2023/06/20 00:17:13;;;;;;;7.50;3.50;;;;;;;28.96;40.83;100857.63;4972715;28;20070;-62
2023/06/20 00:19:39;;;;;;;4.80;2.95;;;;;;;28.94;40.92;100863.41;4957373;29;20039;-62
2023/06/20 00:22:05;;;;;;;13.10;3.60;;;;;;;28.92;40.66;100860.09;4956805;29;20333;-62
2023/06/20 00:24:34;;;;;;;6.78;3.80;;;;;;;28.91;40.52;100858.41;4957924;28;20039;-62
2023/06/20 00:27:03;;;;;;;4.68;3.00;;;;;;;28.90;40.93;100856.72;4956917;29;20051;-62
2023/06/20 00:29:28;;;;;;;8.68;3.80;;;;;;;28.89;40.92;100850.34;4956513;29;20050;-62
2023/06/20 00:31:54;;;;;;;5.13;3.20;;;;;;;28.87;40.21;100851.69;4956959;29;20035;-62
2023/06/20 00:34:19;;;;;;;8.23;4.10;;;;;;;28.84;41.09;100852.19;4956824;29;20121;-62
2023/06/20 00:36:45;;;;;;;6.82;3.83;;;;;;;28.84;40.30;100860.47;4957050;29;20039;-62
2023/06/20 00:39:10;;;;;;;8.57;3.83;;;;;;;28.82;40.47;100854.38;4956547;29;20039;-62
2023/06/20 00:41:36;;;;;;;5.18;3.15;;;;;;;28.78;40.77;100854.00;4956651;29;20027;-62
2023/06/20 00:44:03;;;;;;;9.88;4.38;;;;;;;28.78;41.27;100855.97;4972550;28;20031;-62
2023/06/20 00:46:32;;;;;;;5.95;3.55;;;;;;;28.76;40.88;100852.59;4957603;28;20034;-62
2023/06/20 00:49:04;;;;;;;5.80;3.35;;;;;;;28.72;41.49;100859.72;4940412;29;20090;-61
2023/06/20 00:51:30;;;;;;;8.63;3.88;;;;;;;28.73;41.40;100851.19;4956199;29;20031;-62
2023/06/20 00:53:56;;;;;;;6.85;3.75;;;;;;;28.71;41.19;100850.59;4940828;29;20384;-62
2023/06/20 00:56:26;;;;;;;10.07;3.80;;;;;;;28.73;40.77;100850.34;4958104;29;20055;-61
2023/06/20 00:58:52;;;;;;;8.88;4.45;;;;;;;28.72;41.36;100843.16;4958330;28;20039;-62
2023/06/20 01:01:18;;;;;;;5.43;3.65;;;;;;;28.74;41.51;100846.50;4954861;28;20046;-64
2023/06/20 01:03:46;;;;;;;8.70;3.60;;;;;;;28.73;41.98;100844.81;4940070;28;20027;-62
2023/06/20 01:06:35;;;;;;;5.20;3.63;;;;;;;28.75;41.87;100838.00;4940101;28;20024;-61
2023/06/20 01:09:38;;;;;;;8.75;3.53;;;;;;;28.76;41.62;100833.28;4957116;28;20479;-62
2023/06/20 01:12:13;;;;;;;4.90;2.78;;;;;;;28.77;41.32;100834.97;4956107;28;20066;-62
2023/06/20 01:14:47;;;;;;;4.70;3.30;;;;;;;28.79;41.36;100833.63;4955802;29;20043;-62
2023/06/20 01:17:17;;;;;;;7.45;2.72;;;;;;;28.84;41.68;100832.88;4939898;29;20050;-61
2023/06/20 01:19:49;;;;;;;5.47;3.25;;;;;;;28.87;40.50;100829.63;4957219;28;20510;-62
2023/06/20 01:22:41;;;;;;;6.57;3.47;;;;;;;28.87;41.50;100830.47;4939950;29;20054;-63
2023/06/20 01:25:25;;;;;;;9.45;3.28;;;;;;;28.88;41.63;100826.63;4955926;29;20577;-62
2023/06/20 01:27:59;;;;;;;5.40;3.05;;;;;;;28.88;41.02;100831.31;4956912;28;20047;-62
2023/06/20 01:30:33;;;;;;;7.45;3.10;;;;;;;28.91;40.69;100835.50;4955381;28;20047;-62
2023/06/20 01:33:02;;;;;;;4.50;2.70;;;;;;;28.93;41.08;100833.31;4955420;28;20058;-62
2023/06/20 01:35:29;;;;;;;9.10;3.55;;;;;;;28.95;41.68;100837.50;4955653;28;20094;-62
2023/06/20 01:37:58;;;;;;;6.68;3.22;;;;;;;28.97;41.41;100831.75;4956928;28;20035;-62
2023/06/20 01:40:24;;;;;;;6.70;3.42;;;;;;;28.97;41.02;100840.00;4955711;29;20039;-62
2023/06/20 01:42:55;;;;;;;6.95;2.97;;;;;;;29.00;41.12;100839.53;4939837;29;20031;-62
2023/06/20 01:45:21;;;;;;;5.57;3.13;;;;;;;28.98;41.40;100833.41;4955478;29;20035;-62
2023/06/20 01:47:47;;;;;;;7.85;3.30;;;;;;;28.99;40.88;100832.31;4955478;29;20038;-63
2023/06/20 01:50:12;;;;;;;5.05;3.00;;;;;;;29.02;41.19;100835.41;4956614;29;20478;-61
2023/06/20 01:52:38;;;;;;;3.85;2.75;;;;;;;29.01;41.35;100825.47;4955846;29;20054;-62
2023/06/20 01:55:05;;;;;;;6.15;3.17;;;;;;;29.03;41.78;100844.53;4955183;28;20110;-62
2023/06/20 01:57:32;;;;;;;5.43;2.72;;;;;;;29.04;41.32;100838.75;4955326;28;20049;-62
2023/06/20 01:59:59;;;;;;;5.07;2.83;;;;;;;29.04;41.20;100841.50;4939031;29;20106;-62
2023/06/20 02:02:25;;;;;;;4.18;2.83;;;;;;;29.05;41.47;100842.34;4955025;29;20037;-62
2023/06/20 02:04:56;;;;;;;3.80;2.92;;;;;;;29.04;41.34;100840.66;4955290;29;20042;-62
2023/06/20 02:07:22;;;;;;;4.15;2.58;;;;;;;29.04;41.25;100841.50;4956177;28;20039;-62
2023/06/20 02:09:48;;;;;;;5.32;2.95;;;;;;;28.96;41.81;100828.13;4954573;29;20434;-62
2023/06/20 02:12:14;;;;;;;3.97;2.78;;;;;;;28.99;41.23;100838.69;4954851;28;20046;-61
2023/06/20 02:14:40;;;;;;;4.43;2.45;;;;;;;28.99;41.07;100835.91;4956027;28;20519;-61
2023/06/20 02:17:07;;;;;;;3.90;2.40;;;;;;;28.98;41.34;100830.66;4938529;29;20074;-62
2023/06/20 02:19:32;;;;;;;3.20;2.10;;;;;;;28.97;41.13;100838.09;4954911;29;20032;-61
2023/06/20 02:21:58;;;;;;;4.65;2.72;;;;;;;28.97;41.07;100840.00;4953620;28;20031;-62
2023/06/20 02:24:26;;;;;;;3.78;2.33;;;;;;;28.99;41.37;100841.44;4954628;28;20035;-61
2023/06/20 02:26:53;;;;;;;3.20;2.03;;;;;;;28.99;42.10;100849.72;4954758;29;20074;-61
2023/06/20 02:29:19;;;;;;;2.45;1.90;;;;;;;29.00;41.11;100850.56;4954328;29;20083;-62
2023/06/20 02:31:47;;;;;;;3.53;2.22;;;;;;;28.99;41.82;100849.72;4954408;28;20044;-61
2023/06/20 02:34:18;;;;;;;2.97;2.17;;;;;;;28.97;41.46;100851.88;4938793;29;20031;-61
2023/06/20 02:36:44;;;;;;;4.75;2.92;;;;;;;28.94;41.47;100865.34;4954585;29;20035;-61
2023/06/20 02:39:10;;;;;;;5.70;3.00;;;;;;;28.90;42.04;100862.22;4938813;29;20039;-62
2023/06/20 02:41:35;;;;;;;3.75;3.05;;;;;;;28.87;42.15;100854.44;4955802;29;20041;-62
2023/06/20 02:44:01;;;;;;;4.35;2.88;;;;;;;28.84;41.25;100846.66;4938948;29;20443;-62
2023/06/20 02:46:36;;;;;;;8.10;3.42;;;;;;;28.84;41.43;100857.72;4954625;29;20028;-62
2023/06/20 02:49:10;;;;;;;4.05;2.67;;;;;;;28.82;41.94;100851.59;4923097;29;20039;-62
2023/06/20 02:51:56;;;;;;;5.82;3.83;;;;;;;28.83;41.78;100845.03;4955356;28;20131;-62
2023/06/20 02:54:29;;;;;;;2.83;2.38;;;;;;;28.80;42.61;100837.25;4969715;28;20462;-62
2023/06/20 02:56:56;;;;;;;3.40;2.63;;;;;;;28.76;42.75;100833.28;4954311;29;20027;-62
2023/06/20 02:59:25;;;;;;;3.92;2.30;;;;;;;28.64;42.52;100827.88;4938128;29;20403;-61
2023/06/20 03:01:56;;;;;;;3.13;2.33;;;;;;;28.56;43.19;100827.41;4922312;29;20057;-62
2023/06/20 03:04:22;;;;;;;3.40;2.28;;;;;;;28.52;42.97;100827.03;4953477;29;20070;-62
2023/06/20 03:06:51;;;;;;;5.30;2.78;;;;;;;28.50;42.54;100820.09;4938493;29;20047;-62
2023/06/20 03:09:17;;;;;;;4.43;2.97;;;;;;;28.46;43.67;100808.72;4922719;29;20380;-62
2023/06/20 03:11:42;;;;;;;4.00;2.90;;;;;;;28.50;42.88;100811.84;4955148;28;20039;-62
2023/06/20 03:14:14;;;;;;;4.55;2.58;;;;;;;28.48;43.35;100814.81;4952753;29;20035;-62
2023/06/20 03:16:42;;;;;;;4.05;2.90;;;;;;;28.50;42.92;100820.94;4921780;28;20059;-62
2023/06/20 03:19:10;;;;;;;3.75;2.50;;;;;;;28.49;44.05;100826.69;4955167;28;20114;-61
2023/06/20 03:21:35;;;;;;;4.90;2.47;;;;;;;28.49;43.30;100834.97;4955005;28;20019;-61
2023/06/20 03:24:01;;;;;;;17.15;10.35;;;;;;;28.48;43.28;100842.38;4953390;28;20023;-63
2023/06/20 03:26:26;;;;;;;8.02;4.57;;;;;;;28.46;43.38;100850.06;4937438;28;20054;-62
2023/06/20 03:28:52;;;;;;;4.45;3.30;;;;;;;28.46;44.43;100843.72;4954091;28;20027;-61
2023/06/20 03:31:17;;;;;;;3.75;2.70;;;;;;;28.44;43.81;100845.91;4954792;28;20050;-64
2023/06/20 03:33:42;;;;;;;4.50;2.85;;;;;;;28.44;44.52;100851.41;4954343;28;20023;-62
2023/06/20 03:36:10;;;;;;;3.95;2.67;;;;;;;28.42;44.78;100854.41;4954735;28;20114;-61
2023/06/20 03:38:35;;;;;;;8.27;4.82;;;;;;;28.42;43.85;100850.81;4938069;28;20031;-61
2023/06/20 03:41:01;;;;;;;4.15;2.45;;;;;;;28.41;44.71;100840.88;4937530;28;20027;-62
2023/06/20 03:43:26;;;;;;;5.47;2.40;;;;;;;28.41;44.03;100846.38;4953471;28;20039;-62
2023/06/20 03:45:51;;;;;;;3.03;2.40;;;;;;;28.41;44.26;100846.38;4953386;28;20057;-63
2023/06/20 03:48:19;;;;;;;4.20;2.83;;;;;;;28.41;44.84;100851.91;4953527;28;20114;-62
2023/06/20 03:50:44;;;;;;;4.28;3.05;;;;;;;28.41;44.99;100854.66;4953391;28;20035;-62
2023/06/20 03:53:09;;;;;;;3.70;2.08;;;;;;;28.40;44.01;100845.53;4953257;28;20038;-61
2023/06/20 03:55:35;;;;;;;5.70;2.47;;;;;;;28.38;44.69;100846.88;4937558;28;20113;-62
2023/06/20 03:58:00;;;;;;;5.10;2.80;;;;;;;28.41;44.84;100843.63;4954834;28;20114;-61
2023/06/20 04:00:26;;;;;;;2.78;2.45;;;;;;;28.42;43.97;100853.59;4969432;28;20074;-62
2023/06/20 04:02:52;;;;;;;2.15;1.88;;;;;;;28.42;44.28;100843.38;4937492;28;20063;-62
2023/06/20 04:05:18;;;;;;;2.88;2.03;;;;;;;28.43;44.39;100838.69;4969384;28;20078;-62
2023/06/20 04:07:43;;;;;;;2.92;2.28;;;;;;;28.43;43.88;100839.53;4954704;28;20039;-62
2023/06/20 04:10:17;;;;;;;5.38;2.50;;;;;;;28.44;44.13;100851.41;4921384;28;20031;-62
2023/06/20 04:12:43;;;;;;;4.47;1.98;;;;;;;28.43;44.67;100842.28;4953243;29;20511;-62
2023/06/20 04:15:09;;;;;;;3.40;2.20;;;;;;;28.47;44.86;100837.13;4934295;29;20055;-62
2023/06/20 04:17:34;;;;;;;2.72;2.30;;;;;;;28.46;44.25;100833.53;4938438;29;20105;-62
2023/06/20 04:20:00;;;;;;;3.08;2.45;;;;;;;28.47;43.82;100835.22;4953544;28;20546;-62
2023/06/20 04:22:28;;;;;;;3.60;2.15;;;;;;;28.48;44.43;100834.13;4954261;28;20031;-62
2023/06/20 04:24:54;;;;;;;3.50;2.45;;;;;;;28.49;44.57;100838.56;4953139;29;20036;-62
2023/06/20 04:27:19;;;;;;;3.75;2.22;;;;;;;28.50;44.09;100839.41;4954888;28;20035;-62
2023/06/20 04:29:44;;;;;;;5.00;2.90;;;;;;;28.49;44.52;100833.03;4953194;29;20455;-62
2023/06/20 04:32:10;;;;;;;3.72;2.65;;;;;;;28.50;44.13;100836.66;4953158;28;20046;-62
2023/06/20 04:34:36;;;;;;;2.95;2.20;;;;;;;28.52;44.66;100845.50;4953316;29;20028;-61
2023/06/20 04:37:01;;;;;;;4.32;2.50;;;;;;;28.52;43.93;100842.75;4955586;28;20038;-62
2023/06/20 04:39:29;;;;;;;2.40;1.98;;;;;;;28.52;44.18;100842.75;4957963;28;20059;-61
2023/06/20 04:41:54;;;;;;;3.75;1.90;;;;;;;28.53;44.13;100836.97;4957826;28;20023;-62
2023/06/20 04:44:20;;;;;;;3.67;2.30;;;;;;;28.50;44.61;100828.38;4957778;28;20115;-62
2023/06/20 04:46:45;;;;;;;3.13;2.35;;;;;;;28.55;44.28;100836.75;4958588;28;20054;-62
2023/06/20 04:49:10;;;;;;;7.65;2.70;;;;;;;28.56;43.98;100839.22;4957051;29;20399;-62
2023/06/20 04:51:36;;;;;;;3.33;2.10;;;;;;;28.60;44.20;100839.59;4959350;28;20492;-62
2023/06/20 04:54:01;;;;;;;4.18;2.35;;;;;;;28.70;44.13;100839.81;4973491;28;20035;-62
2023/06/20 04:56:27;;;;;;;3.22;2.22;;;;;;;28.83;43.55;100839.50;4959077;28;20031;-62
2023/06/20 04:58:52;;;;;;;4.75;2.40;;;;;;;28.96;43.70;100836.41;4959497;29;20054;-62
2023/06/20 05:01:18;;;;;;;4.25;2.58;;;;;;;29.05;44.39;100821.13;4960029;28;20031;-61
2023/06/20 05:03:43;;;;;;;3.42;2.63;;;;;;;29.20;43.79;100821.34;4958332;29;20039;-61
2023/06/20 05:06:17;;;;;;;3.17;2.22;;;;;;;29.30;43.88;100807.75;4961047;28;20031;-62
2023/06/20 05:08:45;;;;;;;3.40;2.20;;;;;;;29.46;43.94;100808.81;4961346;28;20043;-61
2023/06/20 05:11:11;;;;;;;3.92;2.75;;;;;;;29.58;43.89;100812.31;4960240;28;20562;-63
2023/06/20 05:13:36;;;;;;;4.10;2.47;;;;;;;29.67;44.07;100813.56;4940438;29;20123;-62
2023/06/20 05:16:02;;;;;;;4.45;2.92;;;;;;;29.84;43.37;100819.06;4957837;28;20506;-61
2023/06/20 05:18:28;;;;;;;3.38;2.30;;;;;;;30.00;43.16;100813.47;4957660;28;20143;-62
2023/06/20 05:20:55;;;;;;;4.28;2.75;;;;;;;30.11;43.38;100808.06;4957311;28;20039;-62
2023/06/20 05:23:21;;;;;;;8.32;3.47;;;;;;;30.23;42.93;100809.63;4956303;29;20498;-62
2023/06/20 05:25:46;;;;;;;4.07;2.40;;;;;;;30.37;42.95;100813.69;4955385;28;20046;-62
2023/06/20 05:28:11;;;;;;;2.92;2.58;;;;;;;30.45;43.05;100813.22;4957618;28;20035;-62
2023/06/20 05:30:37;;;;;;;7.13;2.25;;;;;;;30.50;42.83;100829.84;4955948;29;20522;-62
2023/06/20 05:33:02;;;;;;;6.93;2.50;;;;;;;30.57;42.53;100830.47;4936722;28;20063;-62
2023/06/20 05:35:27;;;;;;;2.92;2.20;;;;;;;30.65;42.56;100825.56;4946428;28;20035;-62
2023/06/20 05:37:53;;;;;;;3.00;2.70;;;;;;;30.72;42.51;100815.97;4939665;29;20050;-63
2023/06/20 05:40:18;;;;;;;2.58;2.17;;;;;;;30.86;42.12;100821.91;4955589;29;20383;-62
2023/06/20 05:42:44;;;;;;;3.20;2.50;;;;;;;30.98;42.14;100831.75;4955447;29;20035;-62
2023/06/20 05:45:09;;;;;;;4.65;2.35;;;;;;;31.06;41.67;100833.19;4955585;29;20031;-62
2023/06/20 05:47:35;;;;;;;3.42;2.38;;;;;;;31.08;41.76;100830.97;4938377;29;20044;-62
2023/06/20 05:50:00;;;;;;;2.75;1.92;;;;;;;31.10;42.05;100831.56;4936135;28;20028;-62
2023/06/20 05:52:26;;;;;;;4.15;2.17;;;;;;;31.14;41.18;100830.75;4929286;29;20066;-62
2023/06/20 05:54:54;;;;;;;6.78;1.80;;;;;;;31.28;41.04;100820.06;4955598;28;20123;-63
2023/06/20 05:57:20;;;;;;;1.58;1.42;;;;;;;31.37;41.17;100824.03;4936349;28;20050;-61
2023/06/20 05:59:45;;;;;;;2.17;1.95;;;;;;;31.49;41.17;100824.66;4946970;28;20043;-61
2023/06/20 06:02:12;;;;;;;7.15;2.38;;;;;;;31.62;40.64;100821.44;4955134;28;20035;-62
2023/06/20 06:04:37;;;;;;;5.18;1.77;;;;;;;31.75;40.68;100824.81;4955369;28;20415;-62
2023/06/20 06:07:07;;;;;;;3.35;1.70;;;;;;;31.88;40.30;100821.59;4955197;28;20035;-62
2023/06/20 06:09:33;;;;;;;2.85;1.75;;;;;;;31.97;39.89;100825.47;4955080;28;20035;-62
2023/06/20 06:11:58;;;;;;;2.65;2.25;;;;;;;32.06;40.60;100823.91;4935978;28;20043;-62
2023/06/20 06:14:23;;;;;;;2.97;2.15;;;;;;;32.06;40.31;100815.56;4962458;28;20490;-62
2023/06/20 06:16:49;;;;;;;5.18;2.22;;;;;;;32.20;40.40;100816.75;4938948;28;20039;-62
2023/06/20 06:19:14;;;;;;;2.70;1.90;;;;;;;32.25;39.99;100825.91;4954953;28;20126;-61
2023/06/20 06:21:40;;;;;;;10.07;2.30;;;;;;;32.19;39.87;100820.66;4954927;28;20518;-61
2023/06/20 06:24:06;;;;;;;2.42;2.15;;;;;;;32.14;39.92;100820.59;4954765;28;20043;-62
2023/06/20 06:26:32;;;;;;;4.60;1.90;;;;;;;32.01;40.14;100815.56;4954647;28;20039;-61
2023/06/20 06:28:59;;;;;;;3.08;2.22;;;;;;;32.04;39.48;100815.03;4955937;28;20553;-61
2023/06/20 06:31:29;;;;;;;5.20;1.92;;;;;;;32.25;39.82;100817.59;4954683;28;20040;-62
2023/06/20 06:33:59;;;;;;;3.95;1.90;;;;;;;32.51;39.61;100817.66;4954510;28;20055;-61
2023/06/20 06:36:24;;;;;;;6.88;2.63;;;;;;;32.66;39.57;100829.69;4954591;28;20037;-61
2023/06/20 06:38:50;;;;;;;3.63;1.98;;;;;;;32.54;39.19;100815.22;4951450;28;20114;-61
2023/06/20 06:41:17;;;;;;;2.20;2.00;;;;;;;32.73;38.32;100816.34;4949007;28;20043;-61
2023/06/20 06:43:43;;;;;;;4.22;1.92;;;;;;;32.93;38.11;100817.47;4954982;28;20050;-61
2023/06/20 06:46:08;;;;;;;3.30;2.00;;;;;;;32.81;38.73;100815.78;4951609;28;20062;-61
2023/06/20 06:48:33;;;;;;;4.13;2.70;;;;;;;32.96;38.37;100812.22;4948308;29;20039;-62
2023/06/20 06:50:59;;;;;;;2.60;2.38;;;;;;;33.03;38.42;100820.28;4954399;28;20031;-61
2023/06/20 06:53:25;;;;;;;2.92;2.03;;;;;;;33.00;38.83;100815.28;4955430;28;20044;-61
2023/06/20 06:55:50;;;;;;;2.65;1.63;;;;;;;33.15;37.86;100812.50;4955679;28;20031;-61
2023/06/20 06:58:15;;;;;;;2.22;2.03;;;;;;;33.24;37.83;100808.06;4954519;28;20118;-61
2023/06/20 07:00:41;;;;;;;5.72;1.83;;;;;;;33.49;38.12;100813.56;4950338;28;20042;-62
2023/06/20 07:03:08;;;;;;;3.42;1.75;;;;;;;33.61;37.46;100816.94;4965064;28;20039;-61
2023/06/20 07:05:33;;;;;;;2.78;1.40;;;;;;;33.76;37.43;100814.09;4956425;28;20047;-62
2023/06/20 07:07:59;;;;;;;4.80;2.00;;;;;;;34.08;37.13;100810.09;4935769;28;20035;-61
2023/06/20 07:10:24;;;;;;;4.78;1.90;;;;;;;34.31;37.30;100803.88;4933468;28;20039;-61
2023/06/20 07:12:50;;;;;;;7.47;1.90;;;;;;;34.49;36.50;100797.63;4922532;28;20036;-62
2023/06/20 07:15:15;;;;;;;4.28;1.90;;;;;;;34.74;36.23;100797.47;4934710;28;20040;-62
2023/06/20 07:17:41;;;;;;;3.10;1.85;;;;;;;34.95;36.49;100796.19;4949267;28;20078;-61
2023/06/20 07:20:08;;;;;;;6.78;2.33;;;;;;;35.09;35.70;100799.19;4954472;28;20367;-61
2023/06/20 07:22:33;;;;;;;6.63;3.28;;;;;;;35.22;36.22;100800.44;4955416;28;20031;-62
2023/06/20 07:24:59;;;;;;;2.75;1.50;;;;;;;35.39;35.56;100786.91;4955300;28;20114;-61
2023/06/20 07:27:24;;;;;;;2.42;1.80;;;;;;;35.60;35.47;100785.56;4934848;28;20035;-61
2023/06/20 07:29:50;;;;;;;3.40;2.25;;;;;;;35.84;35.65;100792.00;4950864;28;20035;-62
2023/06/20 07:32:16;;;;;;;1.75;1.55;;;;;;;36.02;35.11;100793.16;4953874;28;20114;-62
2023/06/20 07:34:41;;;;;;;2.10;1.90;;;;;;;36.14;34.87;100788.84;4934570;28;20039;-61
2023/06/20 07:37:07;;;;;;;5.22;2.00;;;;;;;36.34;34.68;100786.91;4949885;28;20042;-61
2023/06/20 07:39:32;;;;;;;3.95;1.98;;;;;;;36.46;34.57;100778.91;4953883;28;20459;-61
2023/06/20 07:41:57;;;;;;;3.35;2.08;;;;;;;36.55;34.53;100785.47;4953950;28;20494;-62
2023/06/20 07:44:23;;;;;;;2.60;1.60;;;;;;;36.69;34.12;100789.16;4954188;28;20114;-62
2023/06/20 07:46:48;;;;;;;3.55;2.28;;;;;;;36.83;34.21;100794.81;4953423;28;20050;-62
2023/06/20 07:49:13;;;;;;;1.35;1.02;;;;;;;36.94;33.51;100791.53;4955209;28;20446;-60
2023/06/20 07:51:40;;;;;;;2.40;1.40;;;;;;;37.00;33.45;100795.94;4935040;29;20035;-60
2023/06/20 07:54:06;;;;;;;2.42;1.75;;;;;;;36.98;33.34;100806.59;4950215;29;20038;-60
2023/06/20 07:56:32;;;;;;;2.67;1.73;;;;;;;37.00;33.61;100800.69;4954740;28;20062;-61
2023/06/20 07:58:57;;;;;;;2.03;1.70;;;;;;;37.00;33.06;100795.13;4953535;29;20507;-60
2023/06/20 08:01:23;;;;;;;2.03;1.60;;;;;;;37.10;33.41;100795.78;4937492;29;20135;-61
2023/06/20 08:03:48;;;;;;;2.17;1.98;;;;;;;37.22;33.20;100787.72;4953583;29;20039;-61
2023/06/20 08:06:14;;;;;;;2.22;1.65;;;;;;;37.22;33.09;100798.91;4937292;29;20062;-60
2023/06/20 08:08:39;;;;;;;1.55;1.42;;;;;;;37.04;32.86;100785.00;4921664;29;20039;-61
2023/06/20 08:11:05;;;;;;;2.13;1.70;;;;;;;36.72;33.30;100788.56;4954802;28;20058;-60
2023/06/20 08:13:31;;;;;;;3.05;1.98;;;;;;;36.40;33.61;100796.88;4957106;28;20046;-60
2023/06/20 08:15:56;;;;;;;2.30;1.80;;;;;;;36.26;33.85;100795.94;4937694;29;20115;-60
2023/06/20 08:18:22;;;;;;;2.10;1.60;;;;;;;36.27;33.43;100798.41;4954456;29;20090;-61
2023/06/20 08:20:48;;;;;;;2.13;1.85;;;;;;;36.47;33.49;100786.97;4958391;28;20506;-60
2023/06/20 08:23:25;;;;;;;1.73;1.42;;;;;;;36.50;33.48;100785.56;4941122;29;20035;-61
2023/06/20 08:25:52;;;;;;;3.15;1.80;;;;;;;36.74;32.69;100791.91;4958153;28;20407;-60
2023/06/20 08:28:18;;;;;;;3.03;1.90;;;;;;;36.98;32.70;100798.22;4957945;28;20082;-61
2023/06/20 08:30:43;;;;;;;4.60;1.63;;;;;;;37.18;32.94;100792.28;4925315;29;20503;-62
2023/06/20 08:33:08;;;;;;;6.75;1.92;;;;;;;37.44;32.29;100786.25;4957252;29;20038;-61
2023/06/20 08:35:34;;;;;;;1.58;1.45;;;;;;;37.65;32.58;100779.13;4956697;29;20503;-60
2023/06/20 08:37:59;;;;;;;2.83;1.73;;;;;;;37.92;31.70;100790.31;4940795;29;20054;-60
2023/06/20 08:40:24;;;;;;;6.80;2.22;;;;;;;38.19;32.04;100783.88;4957862;28;20066;-62
2023/06/20 08:42:50;;;;;;;2.15;1.92;;;;;;;38.30;31.63;100777.75;4956558;29;20503;-60
2023/06/20 08:45:16;;;;;;;2.03;1.83;;;;;;;38.43;31.01;100779.69;4957592;28;20110;-60
2023/06/20 08:47:41;;;;;;;3.45;1.60;;;;;;;38.54;31.69;100780.28;4955994;29;20507;-60
2023/06/20 08:50:08;;;;;;;3.50;2.35;;;;;;;38.69;31.31;100779.09;4924596;29;20242;-60
2023/06/20 08:52:45;;;;;;;4.82;1.90;;;;;;;38.83;30.34;100777.91;4940145;28;20071;-63
2023/06/20 08:55:12;;;;;;;3.05;2.33;;;;;;;38.97;30.95;100789.06;4956407;28;20031;-60
2023/06/20 08:57:37;;;;;;;4.60;2.17;;;;;;;39.08;31.01;100779.22;4956483;28;20035;-60
2023/06/20 09:00:05;;;;;;;2.47;1.90;;;;;;;39.17;31.38;100782.88;4957965;28;20514;-61
2023/06/20 09:02:31;;;;;;;3.78;1.77;;;;;;;39.21;30.33;100771.91;4941310;28;20112;-59
2023/06/20 09:05:01;;;;;;;2.58;1.73;;;;;;;39.28;30.17;100778.69;4956294;28;20485;-60
2023/06/20 09:07:33;;;;;;;2.53;2.13;;;;;;;39.46;30.14;100785.22;4956816;28;20090;-60
2023/06/20 09:10:00;;;;;;;3.22;1.70;;;;;;;39.66;30.58;100781.06;4957262;28;20035;-60
2023/06/20 09:12:25;;;;;;;3.17;1.92;;;;;;;39.89;30.31;100777.00;4956118;29;20027;-60
2023/06/20 09:14:52;;;;;;;5.60;1.75;;;;;;;40.02;29.78;100781.66;4956119;29;20368;-59
2023/06/20 09:17:19;;;;;;;2.33;1.95;;;;;;;40.18;29.93;100773.66;4957231;28;20114;-59
2023/06/20 09:19:46;;;;;;;2.38;1.65;;;;;;;40.33;29.63;100774.00;4956104;28;20097;-60
2023/06/20 09:22:12;;;;;;;2.22;2.03;;;;;;;40.48;28.81;100772.69;4955002;28;20035;-59
2023/06/20 09:24:45;;;;;;;3.05;1.60;;;;;;;40.67;28.53;100779.66;4955820;29;20035;-61
2023/06/20 09:27:10;;;;;;;4.07;1.73;;;;;;;40.82;28.89;100777.50;4955627;29;20399;-59
2023/06/20 09:29:50;;;;;;;2.20;1.55;;;;;;;40.95;28.27;100782.13;4957206;28;20045;-60
2023/06/20 09:32:22;;;;;;;2.13;1.50;;;;;;;41.07;28.45;100779.47;4955791;29;20035;-61
2023/06/20 09:34:49;;;;;;;2.28;1.80;;;;;;;41.07;27.94;100773.84;4956492;28;20039;-61
2023/06/20 09:37:16;;;;;;;1.90;1.35;;;;;;;41.17;27.77;100768.69;4958314;28;20036;-61
2023/06/20 09:39:42;;;;;;;2.67;1.45;;;;;;;41.41;27.85;100762.50;4941382;29;20036;-61
2023/06/20 09:42:11;;;;;;;2.40;1.95;;;;;;;41.45;27.92;100757.84;4957245;28;20045;-61
2023/06/20 09:44:37;;;;;;;2.22;1.70;;;;;;;41.63;27.99;100759.41;4955930;29;20031;-60
2023/06/20 09:47:02;;;;;;;5.50;1.80;;;;;;;41.80;27.49;100752.91;4971529;28;20154;-61
2023/06/20 09:49:30;;;;;;;3.35;1.73;;;;;;;41.91;27.23;100751.34;4955494;29;20123;-59
2023/06/20 09:52:05;;;;;;;1.52;1.42;;;;;;;42.01;27.40;100765.03;4939561;29;20031;-60
2023/06/20 09:54:51;;;;;;;4.80;2.75;;;;;;;42.11;27.25;100769.44;4955494;29;20039;-59
2023/06/20 09:57:21;;;;;;;6.15;1.85;;;;;;;42.20;27.10;100756.16;4954811;29;20582;-60
2023/06/20 09:59:47;;;;;;;2.88;2.45;;;;;;;42.42;27.07;100753.00;4955218;29;20039;-61
2023/06/20 10:02:13;;;;;;;3.17;2.97;;;;;;;42.80;26.72;100756.47;4955344;29;20407;-59
2023/06/20 10:04:42;;;;;;;88.07;84.15;;;;;;;43.46;26.41;100757.28;4955340;29;20537;-59
2023/06/20 10:07:18;;;;;;;75.72;72.03;;;;;;;44.32;25.32;100758.91;4955393;29;20039;-60
2023/06/20 10:09:44;;;;;;;61.00;58.33;;;;;;;45.30;24.62;100745.19;4954933;29;20031;-60
2023/06/20 10:12:10;;;;;;;7.28;1.90;;;;;;;46.49;23.85;100738.00;4938807;29;20384;-60
2023/06/20 10:14:36;;;;;;;3.00;2.33;;;;;;;47.30;22.71;100748.09;4938958;29;20039;-60
2023/06/20 10:17:06;;;;;;;2.22;2.03;;;;;;;47.35;22.70;100742.94;4938783;29;20067;-62
2023/06/20 10:19:46;;;;;;;1.65;1.55;;;;;;;46.83;23.08;100734.22;4954973;29;20530;-61
2023/06/20 10:22:11;;;;;;;4.18;1.85;;;;;;;46.46;23.32;100728.19;4955109;28;20070;-62
2023/06/20 10:24:39;;;;;;;2.08;1.90;;;;;;;46.07;23.50;100724.47;4950337;28;20468;-60
2023/06/20 10:27:05;;;;;;;2.40;2.20;;;;;;;45.76;23.53;100721.72;4943507;28;20421;-61
2023/06/20 10:29:38;;;;;;;2.45;2.25;;;;;;;45.64;23.75;100713.28;4945051;28;20023;-61
2023/06/20 10:32:05;;;;;;;2.55;2.33;;;;;;;45.68;23.87;100717.06;4945298;29;20064;-60
2023/06/20 10:34:38;;;;;;;2.88;2.58;;;;;;;45.63;23.35;100711.66;4949743;28;20047;-61
2023/06/20 10:37:24;;;;;;;3.63;2.80;;;;;;;45.58;23.33;100721.25;4946755;28;20404;-62
2023/06/20 10:39:57;;;;;;;2.22;2.03;;;;;;;45.46;23.40;100717.69;4945251;28;20040;-61
2023/06/20 10:42:38;;;;;;;3.53;3.05;;;;;;;45.54;23.56;100722.34;4959392;28;20035;-61
2023/06/20 10:45:16;;;;;;;5.90;2.65;;;;;;;45.52;23.25;100713.41;4945025;28;20085;-62
2023/06/20 10:47:42;;;;;;;3.63;2.45;;;;;;;45.58;23.53;100714.75;4943675;29;20388;-61
2023/06/20 10:50:07;;;;;;;6.35;2.38;;;;;;;45.62;23.20;100718.50;4945984;29;20038;-62
2023/06/20 10:52:35;;;;;;;6.10;2.78;;;;;;;45.82;22.86;100706.06;4945081;28;20032;-60
2023/06/20 10:55:01;;;;;;;1.90;1.80;;;;;;;46.07;22.80;100704.63;4949051;28;20109;-61
2023/06/20 10:57:28;;;;;;;4.40;2.00;;;;;;;46.27;22.85;100699.81;4954319;28;20083;-61
2023/06/20 10:59:53;;;;;;;2.17;1.98;;;;;;;46.50;22.62;100694.22;4955467;28;20094;-61
2023/06/20 11:02:19;;;;;;;2.10;1.95;;;;;;;46.65;22.87;100707.53;4953302;28;20044;-60
2023/06/20 11:04:47;;;;;;;2.28;2.00;;;;;;;46.73;22.20;100697.94;4954864;28;20035;-61
2023/06/20 11:07:13;;;;;;;2.20;1.98;;;;;;;46.90;22.09;100703.16;4952443;28;20052;-61
2023/06/20 11:09:42;;;;;;;2.88;1.75;;;;;;;46.99;22.17;100698.03;4955311;28;20490;-61
2023/06/20 11:12:08;;;;;;;4.38;1.60;;;;;;;47.07;21.79;100694.16;4954204;28;20047;-61
2023/06/20 11:14:34;;;;;;;2.40;1.80;;;;;;;47.21;21.70;100697.25;4953667;28;20062;-60
2023/06/20 11:17:00;;;;;;;2.33;1.50;;;;;;;47.24;21.65;100690.81;4954809;28;20051;-61
2023/06/20 11:19:28;;;;;;;3.63;1.77;;;;;;;47.36;21.63;100693.47;4954857;28;20546;-61
2023/06/20 11:21:54;;;;;;;1.98;1.80;;;;;;;47.46;21.64;100685.50;4935042;28;20487;-61
2023/06/20 11:24:20;;;;;;;3.30;1.80;;;;;;;47.43;21.54;100681.41;4951132;28;20038;-62